Time;durP1;ratioP1;P1;durP2;ratioP2;P2;SDS_P1;SDS_P2;PMS_P1;PMS_P2;Temp;Humidity;BMP_temperature;BMP_pressure;BME280_temperature;BME280_humidity;BME280_pressure;Samples;Min_cycle;Max_cycle;Signal;HPM_P1;HPM_P2
2022/12/18 00:01:20;;;;;;;;;;;-2.00;99.90;;;;;;5036370;28;20516;-63
2022/12/18 00:03:46;;;;;;;;;;;-2.10;99.90;;;;;;5036955;28;20265;-61
2022/12/18 00:06:13;;;;;;;;;;;-2.10;99.90;;;;;;5035947;28;19909;-62
2022/12/18 00:08:39;;;;;;;;;;;-2.00;99.90;;;;;;5035111;28;19921;-61
2022/12/18 00:11:10;;;;;;;;;;;-2.10;99.90;;;;;;5034927;28;19916;-61
2022/12/18 00:13:35;;;;;;;;;;;-2.10;99.90;;;;;;5035374;28;20295;-61
2022/12/18 00:16:02;;;;;;;;;;;-2.10;99.90;;;;;;5034513;28;19974;-65
2022/12/18 00:18:27;;;;;;;;;;;-2.10;99.90;;;;;;5035361;28;19912;-63
2022/12/18 00:20:53;;;;;;;;;;;-2.00;99.90;;;;;;5033766;28;19913;-62
2022/12/18 00:23:18;;;;;;;;;;;-2.10;99.90;;;;;;5050810;28;20076;-63
2022/12/18 00:25:44;;;;;;;;;;;-2.20;99.90;;;;;;5050271;28;20336;-62
2022/12/18 00:28:09;;;;;;;;;;;-2.20;99.90;;;;;;5033721;28;20358;-62
2022/12/18 00:30:35;;;;;;;;;;;-2.20;99.90;;;;;;5037306;28;19979;-62
2022/12/18 00:33:00;;;;;;;;;;;-2.40;99.90;;;;;;5035574;28;19909;-62
2022/12/18 00:35:26;;;;;;;;;;;-2.30;99.90;;;;;;5036387;28;19920;-62
2022/12/18 00:37:51;;;;;;;;;;;-2.30;99.90;;;;;;5031863;28;19913;-62
2022/12/18 00:40:16;;;;;;;;;;;-2.30;99.90;;;;;;5031521;28;19974;-62
2022/12/18 00:42:57;;;;;;;;;;;-2.40;99.90;;;;;;5031803;28;19916;-62
2022/12/18 00:45:23;;;;;;;;;;;-2.30;99.90;;;;;;5030619;28;19959;-62
2022/12/18 00:47:49;;;;;;;;;;;-2.40;99.90;;;;;;5031110;28;19909;-62
2022/12/18 00:50:15;;;;;;;;;;;-2.40;99.90;;;;;;5030231;28;19921;-62
2022/12/18 00:52:40;;;;;;;;;;;-2.40;99.90;;;;;;5029514;28;19913;-61
2022/12/18 00:55:06;;;;;;;;;;;-2.40;99.90;;;;;;5027680;28;20287;-62
2022/12/18 00:57:31;;;;;;;;;;;-2.40;99.90;;;;;;5026295;28;19919;-61
2022/12/18 00:59:57;;;;;;;;;;;-2.50;99.90;;;;;;5024629;28;20456;-62
2022/12/18 01:02:22;;;;;;;;;;;-2.50;99.90;;;;;;5024799;28;19966;-63
2022/12/18 01:04:48;;;;;;;;;;;-2.50;99.90;;;;;;5023137;28;19993;-63
2022/12/18 01:07:13;;;;;;;;;;;-2.50;99.90;;;;;;5024472;28;19923;-61
2022/12/18 01:09:39;;;;;;;;;;;-2.50;99.90;;;;;;5036570;28;20041;-61
2022/12/18 01:12:05;;;;;;;;;;;-2.60;99.90;;;;;;5048095;28;20311;-62
2022/12/18 01:14:30;;;;;;;;;;;-2.60;99.90;;;;;;5047828;28;19999;-61
2022/12/18 01:16:55;;;;;;;;;;;-2.60;99.90;;;;;;5065879;28;20027;-63
2022/12/18 01:19:21;;;;;;;;;;;-2.50;99.90;;;;;;5065230;28;20075;-62
2022/12/18 01:21:46;;;;;;;;;;;-2.50;99.90;;;;;;5048309;28;20136;-60
2022/12/18 01:24:12;;;;;;;;;;;-2.60;99.90;;;;;;5066651;28;19934;-60
2022/12/18 01:26:37;;;;;;;;;;;-2.60;99.90;;;;;;5049484;28;19947;-60
2022/12/18 01:29:03;;;;;;;;;;;-2.70;99.90;;;;;;5049865;28;19966;-60
2022/12/18 01:31:29;;;;;;;;;;;-2.80;99.90;;;;;;5051414;28;19981;-59
2022/12/18 01:33:55;;;;;;;;;;;-2.80;99.90;;;;;;5053156;28;20236;-61
2022/12/18 01:36:31;;;;;;;;;;;-2.90;99.90;;;;;;5055213;28;20014;-60
2022/12/18 01:38:59;;;;;;;;;;;-2.80;99.90;;;;;;5053271;28;19913;-61
2022/12/18 01:41:26;;;;;;;;;;;-2.70;99.90;;;;;;5054463;28;20328;-61
2022/12/18 01:43:53;;;;;;;;;;;-2.80;99.90;;;;;;5073433;28;19995;-60
2022/12/18 01:46:19;;;;;;;;;;;-2.80;99.90;;;;;;5057716;28;19997;-61
2022/12/18 01:48:47;;;;;;;;;;;-2.90;99.90;;;;;;5058174;28;19912;-60
2022/12/18 01:51:13;;;;;;;;;;;-2.90;99.90;;;;;;5057925;28;20134;-61
2022/12/18 01:53:39;;;;;;;;;;;-3.10;99.90;;;;;;5056677;28;20277;-60
2022/12/18 01:56:05;;;;;;;;;;;-3.10;99.90;;;;;;5058337;28;19908;-61
2022/12/18 01:59:00;;;;;;;;;;;-3.10;99.90;;;;;;5074809;28;19973;-60
2022/12/18 02:01:26;;;;;;;;;;;-3.00;99.90;;;;;;5038639;28;20038;-59
2022/12/18 02:03:51;;;;;;;;;;;-3.00;99.90;;;;;;5056848;28;20297;-61
2022/12/18 02:06:23;;;;;;;;;;;-2.90;99.90;;;;;;5072802;28;19912;-61
2022/12/18 02:08:58;;;;;;;;;;;-3.00;99.90;;;;;;5054135;28;19928;-61
2022/12/18 02:11:39;;;;;;;;;;;-3.10;99.90;;;;;;5053818;28;19917;-61
2022/12/18 02:14:12;;;;;;;;;;;-3.10;99.90;;;;;;5054730;28;20284;-62
2022/12/18 02:16:56;;;;;;;;;;;-3.20;99.90;;;;;;5053455;28;19909;-61
2022/12/18 02:19:37;;;;;;;;;;;-3.10;99.90;;;;;;5053688;28;19908;-61
2022/12/18 02:22:11;;;;;;;;;;;-3.00;99.90;;;;;;5054856;28;20214;-60
2022/12/18 02:24:40;;;;;;;;;;;-3.00;99.90;;;;;;5054926;28;19978;-61
2022/12/18 02:27:06;;;;;;;;;;;-3.00;99.90;;;;;;5055007;28;19916;-61
2022/12/18 02:29:41;;;;;;;;;;;-2.90;99.90;;;;;;5055377;28;19912;-59
2022/12/18 02:32:10;;;;;;;;;;;-2.90;99.90;;;;;;5057009;28;20236;-60
2022/12/18 02:34:37;;;;;;;;;;;-3.20;99.90;;;;;;5057586;28;19952;-61
2022/12/18 02:37:04;;;;;;;;;;;-3.20;99.90;;;;;;5057654;28;20153;-61
2022/12/18 02:39:32;;;;;;;;;;;-3.20;99.90;;;;;;5056823;28;20243;-62
2022/12/18 02:41:58;;;;;;;;;;;-3.20;99.90;;;;;;5074505;28;19985;-62
2022/12/18 02:44:24;;;;;;;;;;;-3.20;99.90;;;;;;5074672;28;20129;-61
2022/12/18 02:46:51;;;;;;;;;;;-3.10;99.90;;;;;;5057079;28;19959;-62
2022/12/18 02:49:23;;;;;;;;;;;-3.20;99.90;;;;;;5057900;28;20073;-61
2022/12/18 02:51:52;;;;;;;;;;;-3.10;99.90;;;;;;5059200;28;19912;-61
2022/12/18 02:54:20;;;;;;;;;;;-3.10;99.90;;;;;;5059910;28;19986;-61
2022/12/18 02:56:50;;;;;;;;;;;-3.10;99.90;;;;;;5075871;28;19905;-61
2022/12/18 02:59:18;;;;;;;;;;;-3.20;99.90;;;;;;5057981;28;19995;-61
2022/12/18 03:02:02;;;;;;;;;;;-3.20;99.90;;;;;;5057877;28;19974;-61
2022/12/18 03:04:38;;;;;;;;;;;-3.10;99.90;;;;;;5076129;28;19909;-62
2022/12/18 03:07:05;;;;;;;;;;;-3.10;99.90;;;;;;5057879;28;20183;-62
2022/12/18 03:09:32;;;;;;;;;;;-3.10;99.90;;;;;;5065167;28;19990;-61
2022/12/18 03:12:24;;;;;;;;;;;-3.20;99.90;;;;;;5036984;28;19913;-61
2022/12/18 03:14:52;;;;;;;;;;;-3.10;99.90;;;;;;5036461;28;19917;-62
2022/12/18 03:17:20;;;;;;;;;;;-3.10;99.90;;;;;;5055298;28;20203;-61
2022/12/18 03:19:47;;;;;;;;;;;-3.10;99.90;;;;;;5036513;28;20186;-59
2022/12/18 03:22:13;;;;;;;;;;;-3.10;99.90;;;;;;5036422;28;20008;-62
2022/12/18 03:24:39;;;;;;;;;;;-3.10;99.90;;;;;;5036374;28;19975;-61
2022/12/18 03:27:06;;;;;;;;;;;-3.10;99.90;;;;;;5036393;28;19909;-61
2022/12/18 03:29:38;;;;;;;;;;;-3.20;99.90;;;;;;5036148;28;20007;-61
2022/12/18 03:32:11;;;;;;;;;;;-3.20;99.90;;;;;;5034796;28;19936;-60
2022/12/18 03:34:38;;;;;;;;;;;-3.20;99.90;;;;;;5036207;28;20216;-61
2022/12/18 03:37:04;;;;;;;;;;;-3.20;99.90;;;;;;5036021;28;19913;-60
2022/12/18 03:39:30;;;;;;;;;;;-3.20;99.90;;;;;;5036433;28;20073;-61
2022/12/18 03:42:04;;;;;;;;;;;-3.20;99.90;;;;;;5036098;28;20200;-62
2022/12/18 03:44:36;;;;;;;;;;;-3.30;99.90;;;;;;5036203;28;20296;-63
2022/12/18 03:47:13;;;;;;;;;;;-3.40;99.90;;;;;;5036567;28;19917;-61
2022/12/18 03:49:42;;;;;;;;;;;-3.40;99.90;;;;;;5036462;28;19919;-61
2022/12/18 03:52:08;;;;;;;;;;;-3.40;99.90;;;;;;5054786;28;20010;-60
2022/12/18 03:54:35;;;;;;;;;;;-3.40;99.90;;;;;;5037109;28;19966;-61
2022/12/18 03:57:07;;;;;;;;;;;-3.40;99.90;;;;;;5038327;28;20430;-61
2022/12/18 03:59:33;;;;;;;;;;;-3.30;99.90;;;;;;5036850;28;19938;-63
2022/12/18 04:02:00;;;;;;;;;;;-3.30;99.90;;;;;;5055559;28;20188;-62
2022/12/18 04:04:27;;;;;;;;;;;-3.40;99.90;;;;;;5039307;28;20011;-61
2022/12/18 04:06:53;;;;;;;;;;;-3.50;99.90;;;;;;5038526;28;19948;-61
2022/12/18 04:09:19;;;;;;;;;;;-3.60;99.90;;;;;;5045095;28;19977;-61
2022/12/18 04:11:46;;;;;;;;;;;-3.70;99.90;;;;;;5057644;28;20325;-60
2022/12/18 04:14:11;;;;;;;;;;;-3.80;99.90;;;;;;5056540;28;19909;-61
2022/12/18 04:16:37;;;;;;;;;;;-4.00;99.90;;;;;;5072724;28;20052;-62
2022/12/18 04:19:03;;;;;;;;;;;-3.90;99.90;;;;;;5054587;28;20072;-61
2022/12/18 04:21:28;;;;;;;;;;;-3.90;99.90;;;;;;5053580;28;20003;-60
2022/12/18 04:23:54;;;;;;;;;;;-3.80;99.90;;;;;;5070573;28;19999;-61
2022/12/18 04:26:20;;;;;;;;;;;-3.70;99.90;;;;;;5054229;28;20066;-61
2022/12/18 04:28:45;;;;;;;;;;;-3.70;99.90;;;;;;5071787;28;19999;-61
2022/12/18 04:34:14;;;;;;;;;;;-3.80;99.90;;;;;;5075582;28;19924;-61
2022/12/18 04:36:39;;;;;;;;;;;-3.80;99.90;;;;;;5058266;28;20201;-61
2022/12/18 04:39:05;;;;;;;;;;;-3.80;99.90;;;;;;5057423;28;19913;-61
2022/12/18 04:41:30;;;;;;;;;;;-3.70;99.90;;;;;;5058166;28;19919;-62
2022/12/18 04:43:56;;;;;;;;;;;-3.70;99.90;;;;;;5057317;28;20010;-62
2022/12/18 04:46:21;;;;;;;;;;;-3.60;99.90;;;;;;5075545;28;19999;-61
2022/12/18 04:48:46;;;;;;;;;;;-3.60;99.90;;;;;;5057280;28;19940;-60
2022/12/18 04:51:12;;;;;;;;;;;-3.60;99.90;;;;;;5056863;28;20298;-59
2022/12/18 04:53:37;;;;;;;;;;;-3.60;99.90;;;;;;5055955;28;20204;-61
2022/12/18 04:56:07;;;;;;;;;;;-3.80;99.90;;;;;;5055433;28;19916;-61
2022/12/18 04:58:33;;;;;;;;;;;-3.80;99.90;;;;;;5055315;28;20283;-60
2022/12/18 05:00:58;;;;;;;;;;;-3.70;99.90;;;;;;5072393;28;19909;-61
2022/12/18 05:03:24;;;;;;;;;;;-3.70;99.90;;;;;;5054619;28;20282;-61
2022/12/18 05:05:50;;;;;;;;;;;-3.70;99.90;;;;;;5054846;28;19909;-62
2022/12/18 05:08:16;;;;;;;;;;;-3.80;99.90;;;;;;5053868;28;19919;-60
2022/12/18 05:10:41;;;;;;;;;;;-3.80;99.90;;;;;;5051143;28;20201;-61
2022/12/18 05:13:06;;;;;;;;;;;-3.80;99.90;;;;;;5034236;28;19908;-61
2022/12/18 05:15:32;;;;;;;;;;;-3.80;99.90;;;;;;5052538;28;19909;-61
2022/12/18 05:17:58;;;;;;;;;;;-3.80;99.90;;;;;;5035773;28;19939;-62
2022/12/18 05:20:24;;;;;;;;;;;-3.80;99.90;;;;;;5039966;28;20246;-59
2022/12/18 05:22:50;;;;;;;;;;;-3.80;99.90;;;;;;5040195;28;19913;-59
2022/12/18 05:25:16;;;;;;;;;;;-3.80;99.90;;;;;;5040352;28;19913;-59
2022/12/18 05:27:41;;;;;;;;;;;-3.80;99.90;;;;;;5039203;28;19909;-61
2022/12/18 05:30:07;;;;;;;;;;;-3.90;99.90;;;;;;5039050;28;20067;-61
2022/12/18 05:32:32;;;;;;;;;;;-3.90;99.90;;;;;;5038888;28;19909;-60
2022/12/18 05:34:58;;;;;;;;;;;-3.80;99.90;;;;;;5039213;28;19919;-61
2022/12/18 05:37:23;;;;;;;;;;;-3.80;99.90;;;;;;5056452;28;19935;-60
2022/12/18 05:39:49;;;;;;;;;;;-3.80;99.90;;;;;;5038757;28;19920;-60
2022/12/18 05:42:14;;;;;;;;;;;-3.80;99.90;;;;;;5039075;28;20055;-61
2022/12/18 05:44:40;;;;;;;;;;;-3.80;99.90;;;;;;5057168;28;20011;-62
2022/12/18 05:47:05;;;;;;;;;;;-3.80;99.90;;;;;;5038800;28;20158;-61
2022/12/18 05:49:31;;;;;;;;;;;-3.80;99.90;;;;;;5038790;28;20117;-61
2022/12/18 05:51:56;;;;;;;;;;;-3.90;99.90;;;;;;5038889;28;20028;-61
2022/12/18 05:54:22;;;;;;;;;;;-3.90;99.90;;;;;;5037677;28;19919;-62
2022/12/18 05:56:47;;;;;;;;;;;-3.90;99.90;;;;;;5055307;28;19909;-61
2022/12/18 05:59:12;;;;;;;;;;;-3.90;99.90;;;;;;5036963;28;19949;-61
2022/12/18 06:01:38;;;;;;;;;;;-3.90;99.90;;;;;;5035592;28;19919;-61
2022/12/18 06:04:04;;;;;;;;;;;-3.90;99.90;;;;;;5035168;28;19919;-61
2022/12/18 06:06:29;;;;;;;;;;;-3.80;99.90;;;;;;5036542;28;19912;-61
2022/12/18 06:08:56;;;;;;;;;;;-3.80;99.90;;;;;;5042210;28;19931;-63
2022/12/18 06:11:22;;;;;;;;;;;-3.80;99.90;;;;;;5075074;28;19973;-58
2022/12/18 06:13:52;;;;;;;;;;;-3.80;99.90;;;;;;5074306;28;19919;-60
2022/12/18 06:16:17;;;;;;;;;;;-3.80;99.90;;;;;;5054748;28;19916;-61
2022/12/18 06:18:42;;;;;;;;;;;-3.90;99.90;;;;;;5055945;28;20194;-61
2022/12/18 06:21:08;;;;;;;;;;;-3.80;99.90;;;;;;5055589;28;20182;-61
2022/12/18 06:23:34;;;;;;;;;;;-3.80;99.90;;;;;;5052678;28;20054;-59
2022/12/18 06:26:03;;;;;;;;;;;-3.80;99.90;;;;;;5054167;28;19909;-61
2022/12/18 06:28:28;;;;;;;;;;;-3.80;99.90;;;;;;5054243;28;20006;-61
2022/12/18 06:30:54;;;;;;;;;;;-3.90;99.90;;;;;;5053696;28;20378;-61
2022/12/18 06:33:19;;;;;;;;;;;-3.90;99.90;;;;;;5073102;28;20442;-60
2022/12/18 06:35:44;;;;;;;;;;;-3.90;99.90;;;;;;5073824;28;19917;-61
2022/12/18 06:38:10;;;;;;;;;;;-3.90;99.90;;;;;;5056604;28;19912;-61
2022/12/18 06:40:37;;;;;;;;;;;-3.90;99.90;;;;;;5056981;28;20386;-61
2022/12/18 06:43:02;;;;;;;;;;;-3.90;99.90;;;;;;5055154;28;20318;-61
2022/12/18 06:45:28;;;;;;;;;;;-3.90;99.90;;;;;;5057671;28;20095;-61
2022/12/18 06:47:53;;;;;;;;;;;-4.00;99.90;;;;;;5058954;28;19909;-60
2022/12/18 06:50:18;;;;;;;;;;;-4.00;99.90;;;;;;5057604;28;19912;-60
2022/12/18 06:52:44;;;;;;;;;;;-4.00;99.90;;;;;;5056468;28;19920;-60
2022/12/18 06:55:10;;;;;;;;;;;-4.10;99.90;;;;;;5056258;28;19955;-60
2022/12/18 06:57:35;;;;;;;;;;;-4.10;99.90;;;;;;5056416;28;19924;-60
2022/12/18 07:00:01;;;;;;;;;;;-4.10;99.90;;;;;;5074326;28;19913;-60
2022/12/18 07:02:26;;;;;;;;;;;-4.10;99.90;;;;;;5058549;28;20076;-58
2022/12/18 07:04:52;;;;;;;;;;;-4.10;99.90;;;;;;5059092;28;19916;-60
2022/12/18 07:07:18;;;;;;;;;;;-4.20;99.90;;;;;;5057975;28;20025;-60
2022/12/18 07:09:43;;;;;;;;;;;-4.20;99.90;;;;;;5055507;28;19924;-60
2022/12/18 07:12:09;;;;;;;;;;;-4.20;99.90;;;;;;5074174;28;19915;-60
2022/12/18 07:14:34;;;;;;;;;;;-4.20;99.90;;;;;;5056199;28;20007;-58
2022/12/18 07:17:00;;;;;;;;;;;-4.20;99.90;;;;;;5053705;28;19909;-58
2022/12/18 07:19:25;;;;;;;;;;;-4.30;99.90;;;;;;5054276;28;20208;-60
2022/12/18 07:21:51;;;;;;;;;;;-4.30;99.90;;;;;;5052988;28;20175;-60
2022/12/18 07:24:16;;;;;;;;;;;-4.40;99.90;;;;;;5053992;28;20334;-59
2022/12/18 07:26:42;;;;;;;;;;;-4.30;99.90;;;;;;5052367;28;20304;-59
2022/12/18 07:29:08;;;;;;;;;;;-4.30;99.90;;;;;;5053138;28;20227;-58
2022/12/18 07:31:33;;;;;;;;;;;-4.20;99.90;;;;;;5070803;28;19909;-60
2022/12/18 07:33:58;;;;;;;;;;;-4.20;99.90;;;;;;5052728;28;20100;-60
2022/12/18 07:36:24;;;;;;;;;;;-4.20;99.90;;;;;;5052429;28;20026;-60
2022/12/18 07:38:52;;;;;;;;;;;-4.20;99.90;;;;;;5051163;28;20273;-59
2022/12/18 07:41:18;;;;;;;;;;;-4.30;99.90;;;;;;5068152;28;19916;-58
2022/12/18 07:43:43;;;;;;;;;;;-4.30;99.90;;;;;;5051456;28;19935;-60
2022/12/18 07:46:10;;;;;;;;;;;-4.30;99.90;;;;;;5052417;28;20216;-61
2022/12/18 07:48:36;;;;;;;;;;;-4.30;99.90;;;;;;5053196;28;20245;-60
2022/12/18 07:51:03;;;;;;;;;;;-4.20;99.90;;;;;;5053442;28;19919;-60
2022/12/18 07:53:29;;;;;;;;;;;-4.30;99.90;;;;;;5051745;28;19912;-61
2022/12/18 07:55:58;;;;;;;;;;;-4.30;99.90;;;;;;5069432;28;19932;-61
2022/12/18 07:58:24;;;;;;;;;;;-4.30;99.90;;;;;;5052447;28;20291;-61
2022/12/18 08:00:49;;;;;;;;;;;-4.30;99.90;;;;;;5052278;28;20073;-60
2022/12/18 08:03:15;;;;;;;;;;;-4.40;99.90;;;;;;5052037;28;19909;-61
2022/12/18 08:05:41;;;;;;;;;;;-4.40;99.90;;;;;;5051739;28;20431;-61
2022/12/18 08:08:06;;;;;;;;;;;-4.50;99.90;;;;;;5050887;28;19913;-60
2022/12/18 08:10:32;;;;;;;;;;;-4.50;99.90;;;;;;5049446;28;20033;-60
2022/12/18 08:12:57;;;;;;;;;;;-4.50;99.90;;;;;;5051041;28;19952;-61
2022/12/18 08:15:22;;;;;;;;;;;-4.40;99.90;;;;;;5049245;28;20017;-60
2022/12/18 08:17:48;;;;;;;;;;;-4.40;99.90;;;;;;5050891;28;20030;-59
2022/12/18 08:20:14;;;;;;;;;;;-4.40;99.90;;;;;;5052897;28;20162;-60
2022/12/18 08:22:41;;;;;;;;;;;-4.40;99.90;;;;;;5052165;28;19999;-60
2022/12/18 08:25:06;;;;;;;;;;;-4.40;99.90;;;;;;5051087;28;19912;-61
2022/12/18 08:27:32;;;;;;;;;;;-4.40;99.90;;;;;;5049168;28;19919;-61
2022/12/18 08:29:57;;;;;;;;;;;-4.40;99.90;;;;;;5045617;28;19912;-60
2022/12/18 08:32:23;;;;;;;;;;;-4.30;99.90;;;;;;5062938;28;19909;-61
2022/12/18 08:34:49;;;;;;;;;;;-4.30;99.90;;;;;;5064519;28;20005;-60
2022/12/18 08:37:14;;;;;;;;;;;-4.30;99.90;;;;;;5065653;28;19966;-60
2022/12/18 08:39:40;;;;;;;;;;;-4.30;99.90;;;;;;5048538;28;19916;-61
2022/12/18 08:44:50;;;;;;;;;;;-4.20;99.90;;;;;;5064637;28;20249;-62
2022/12/18 08:47:15;;;;;;;;;;;-4.30;99.90;;;;;;5043748;28;19951;-61
2022/12/18 08:49:41;;;;;;;;;;;-4.30;99.90;;;;;;5060966;28;20047;-61
2022/12/18 08:52:06;;;;;;;;;;;-4.30;99.90;;;;;;5045256;28;19992;-61
2022/12/18 08:54:31;;;;;;;;;;;-4.30;99.90;;;;;;5044869;28;19913;-62
2022/12/18 08:56:57;;;;;;;;;;;-4.20;99.90;;;;;;5045839;28;19919;-61
2022/12/18 08:59:23;;;;;;;;;;;-4.20;99.90;;;;;;5064782;28;19943;-59
2022/12/18 09:01:49;;;;;;;;;;;-4.20;99.90;;;;;;5047533;28;20068;-60
2022/12/18 09:04:14;;;;;;;;;;;-4.10;99.90;;;;;;5050217;28;19908;-61
2022/12/18 09:06:40;;;;;;;;;;;-4.10;99.90;;;;;;5051937;28;19959;-61
2022/12/18 09:09:05;;;;;;;;;;;-4.00;99.90;;;;;;5050677;28;20163;-61
2022/12/18 09:11:31;;;;;;;;;;;-3.80;99.90;;;;;;5049811;28;19955;-62
2022/12/18 09:13:58;;;;;;;;;;;-3.40;99.90;;;;;;5067113;28;19977;-61
2022/12/18 09:16:25;;;;;;;;;;;-2.90;99.90;;;;;;5047954;28;19919;-60
2022/12/18 09:18:50;;;;;;;;;;;-2.10;99.90;;;;;;5045454;28;20068;-61
2022/12/18 09:21:17;;;;;;;;;;;-1.60;99.90;;;;;;5044196;28;19908;-61
2022/12/18 09:23:42;;;;;;;;;;;-1.10;99.90;;;;;;5062752;28;19921;-61
2022/12/18 09:26:08;;;;;;;;;;;-0.80;99.90;;;;;;5044827;28;19908;-61
2022/12/18 09:28:34;;;;;;;;;;;-0.80;99.90;;;;;;5060456;28;19905;-60
2022/12/18 09:31:03;;;;;;;;;;;-1.20;99.90;;;;;;5042782;28;19924;-61
2022/12/18 09:33:28;;;;;;;;;;;-1.30;99.90;;;;;;5043217;28;19916;-61
2022/12/18 09:35:54;;;;;;;;;;;-1.50;99.90;;;;;;5062547;28;19962;-61
2022/12/18 09:38:19;;;;;;;;;;;-1.70;99.90;;;;;;5044419;28;19986;-60
2022/12/18 09:40:47;;;;;;;;;;;-1.90;99.90;;;;;;5043385;28;20001;-61
2022/12/18 09:43:15;;;;;;;;;;;-2.00;99.90;;;;;;5062275;28;19913;-60
2022/12/18 09:45:43;;;;;;;;;;;-2.10;99.90;;;;;;5047627;28;20424;-61
2022/12/18 09:48:30;;;;;;;;;;;-2.10;99.90;;;;;;5066580;28;19947;-61
2022/12/18 09:50:57;;;;;;;;;;;-2.30;99.90;;;;;;5047623;28;20092;-63
2022/12/18 09:53:26;;;;;;;;;;;-2.20;99.90;;;;;;5045339;28;20231;-61
2022/12/18 09:55:53;;;;;;;;;;;-2.30;99.90;;;;;;5046127;28;20061;-57
2022/12/18 09:58:20;;;;;;;;;;;-2.30;99.90;;;;;;5045455;28;19909;-56
2022/12/18 10:00:46;;;;;;;;;;;-2.30;99.90;;;;;;5047380;28;20199;-61
2022/12/18 10:03:13;;;;;;;;;;;-2.40;99.90;;;;;;5045703;28;20354;-61
2022/12/18 10:05:44;;;;;;;;;;;-2.30;99.90;;;;;;5049659;28;19909;-61
2022/12/18 10:08:18;;;;;;;;;;;-2.30;99.90;;;;;;5055809;28;20506;-61
2022/12/18 10:10:49;;;;;;;;;;;-2.20;99.90;;;;;;5056152;28;19924;-61
2022/12/18 10:13:18;;;;;;;;;;;-2.10;99.90;;;;;;5055765;28;19908;-61
2022/12/18 10:15:56;;;;;;;;;;;-1.80;99.90;;;;;;5055028;28;19908;-61
2022/12/18 10:18:42;;;;;;;;;;;-1.90;99.90;;;;;;5055523;28;20300;-62
2022/12/18 10:21:12;;;;;;;;;;;-1.80;99.90;;;;;;5055630;28;20004;-62
2022/12/18 10:23:43;;;;;;;;;;;-1.80;99.90;;;;;;5054293;28;19962;-62
2022/12/18 10:26:11;;;;;;;;;;;-2.00;99.90;;;;;;5054287;28;19982;-61
2022/12/18 10:28:38;;;;;;;;;;;-1.90;99.90;;;;;;5054309;28;19917;-61
2022/12/18 10:31:12;;;;;;;;;;;-1.90;99.90;;;;;;5054419;28;19913;-61
2022/12/18 10:33:37;;;;;;;;;;;-1.80;99.90;;;;;;5054913;28;19999;-62
2022/12/18 10:36:03;;;;;;;;;;;-1.80;99.90;;;;;;5056576;28;20014;-63
2022/12/18 10:38:31;;;;;;;;;;;-1.70;99.90;;;;;;5056261;28;19927;-62
2022/12/18 10:41:04;;;;;;;;;;;-1.70;99.90;;;;;;5054709;28;19916;-62
2022/12/18 10:43:32;;;;;;;;;;;-1.70;99.90;;;;;;5073603;28;20277;-62
2022/12/18 10:46:11;;;;;;;;;;;-1.80;99.90;;;;;;5053443;28;19916;-61
2022/12/18 10:48:46;;;;;;;;;;;-1.80;99.90;;;;;;5053095;28;20000;-60
2022/12/18 10:51:19;;;;;;;;;;;-1.70;99.90;;;;;;5072048;28;20269;-61
2022/12/18 10:53:51;;;;;;;;;;;-1.70;99.90;;;;;;5053663;28;19923;-59
2022/12/18 10:56:19;;;;;;;;;;;-1.60;99.90;;;;;;5055088;28;20430;-63
2022/12/18 10:58:54;;;;;;;;;;;-1.40;99.90;;;;;;5053263;28;20275;-61
2022/12/18 11:01:20;;;;;;;;;;;-1.30;99.90;;;;;;5054259;28;19958;-62
2022/12/18 11:03:55;;;;;;;;;;;-1.10;99.90;;;;;;5053817;28;19916;-61
2022/12/18 11:06:23;;;;;;;;;;;-1.10;99.90;;;;;;5055445;28;19921;-62
2022/12/18 11:08:58;;;;;;;;;;;-1.30;99.90;;;;;;5052995;28;20020;-61
2022/12/18 11:11:25;;;;;;;;;;;-1.30;99.90;;;;;;5054927;28;19952;-61
2022/12/18 11:13:56;;;;;;;;;;;-1.20;99.90;;;;;;5037514;28;19920;-61
2022/12/18 11:16:23;;;;;;;;;;;-1.00;99.90;;;;;;5036550;28;19936;-61
2022/12/18 11:18:49;;;;;;;;;;;-0.80;99.90;;;;;;5036908;28;19909;-61
2022/12/18 11:21:14;;;;;;;;;;;-0.50;99.90;;;;;;5035799;28;19974;-62
2022/12/18 11:23:47;;;;;;;;;;;-0.60;99.90;;;;;;5034207;28;19939;-61
2022/12/18 11:26:13;;;;;;;;;;;-0.70;99.90;;;;;;5034465;28;19920;-61
2022/12/18 11:28:44;;;;;;;;;;;-0.60;99.90;;;;;;5033091;28;19909;-62
2022/12/18 11:31:12;;;;;;;;;;;-0.60;99.90;;;;;;5049625;28;20015;-60
2022/12/18 11:33:39;;;;;;;;;;;-0.80;99.90;;;;;;5050674;28;19908;-61
2022/12/18 11:36:07;;;;;;;;;;;-0.70;99.90;;;;;;5031100;28;19996;-61
2022/12/18 11:38:37;;;;;;;;;;;-0.60;99.90;;;;;;5026290;28;20269;-61
2022/12/18 11:41:11;;;;;;;;;;;-0.70;99.90;;;;;;5025055;28;20369;-61
2022/12/18 11:43:37;;;;;;;;;;;-0.90;99.90;;;;;;5047241;28;19913;-61
2022/12/18 11:46:05;;;;;;;;;;;-0.90;99.90;;;;;;5034095;28;19923;-59
2022/12/18 11:48:34;;;;;;;;;;;-0.80;99.90;;;;;;5033275;28;20178;-62
2022/12/18 11:51:01;;;;;;;;;;;-0.70;99.90;;;;;;5031102;28;19913;-63
2022/12/18 11:53:27;;;;;;;;;;;-0.40;99.90;;;;;;5031373;28;19913;-57
2022/12/18 11:55:58;;;;;;;;;;;-0.20;99.90;;;;;;5033248;28;19935;-57
2022/12/18 11:58:29;;;;;;;;;;;0.00;99.90;;;;;;5031782;28;20484;-60
2022/12/18 12:01:00;;;;;;;;;;;0.00;99.90;;;;;;5031858;28;19909;-58
2022/12/18 12:03:50;;;;;;;;;;;0.00;99.90;;;;;;5029888;28;19975;-61
2022/12/18 12:06:22;;;;;;;;;;;0.10;99.90;;;;;;5028765;28;20251;-62
2022/12/18 12:09:06;;;;;;;;;;;0.20;99.90;;;;;;5027857;28;20285;-61
2022/12/18 12:11:42;;;;;;;;;;;0.10;99.90;;;;;;5028483;28;20475;-61
2022/12/18 12:14:08;;;;;;;;;;;0.00;99.90;;;;;;5045373;28;19962;-60
2022/12/18 12:16:36;;;;;;;;;;;0.00;99.90;;;;;;5028035;28;19909;-62
2022/12/18 12:19:04;;;;;;;;;;;-0.10;99.90;;;;;;5044169;28;19909;-62
2022/12/18 12:21:33;;;;;;;;;;;-0.30;99.90;;;;;;5021832;28;20089;-62
2022/12/18 12:23:58;;;;;;;;;;;-0.40;99.90;;;;;;5041028;28;19974;-60
2022/12/18 12:26:33;;;;;;;;;;;-0.70;99.90;;;;;;5022051;28;20011;-61
2022/12/18 12:29:07;;;;;;;;;;;-0.80;99.90;;;;;;5016808;28;19964;-61
2022/12/18 12:31:36;;;;;;;;;;;-0.80;99.90;;;;;;5018096;28;19916;-62
2022/12/18 12:34:12;;;;;;;;;;;-0.80;99.90;;;;;;5021236;28;19948;-62
2022/12/18 12:36:43;;;;;;;;;;;-0.70;99.90;;;;;;5022933;28;19925;-62
2022/12/18 12:39:14;;;;;;;;;;;-0.60;99.90;;;;;;5041057;28;19924;-60
2022/12/18 12:44:34;;;;;;;;;;;-0.60;99.90;;;;;;5036220;28;19916;-61
2022/12/18 12:47:03;;;;;;;;;;;-0.60;99.90;;;;;;5020221;28;19909;-61
2022/12/18 12:49:31;;;;;;;;;;;-0.50;99.90;;;;;;5017718;28;19913;-60
2022/12/18 12:52:00;;;;;;;;;;;-0.20;99.90;;;;;;5019625;28;20553;-61
2022/12/18 12:54:27;;;;;;;;;;;0.00;99.90;;;;;;5020272;28;20268;-61
2022/12/18 12:56:55;;;;;;;;;;;0.20;99.90;;;;;;5023849;28;19917;-61
2022/12/18 12:59:35;;;;;;;;;;;0.30;99.90;;;;;;5026176;28;19909;-59
2022/12/18 13:02:05;;;;;;;;;;;0.40;99.90;;;;;;5026520;28;19963;-61
2022/12/18 13:04:31;;;;;;;;;;;0.30;99.90;;;;;;5043363;28;19919;-60
2022/12/18 13:06:57;;;;;;;;;;;0.30;99.90;;;;;;5028331;28;19913;-59
2022/12/18 13:09:22;;;;;;;;;;;0.30;99.90;;;;;;5039178;28;19931;-61
2022/12/18 13:14:31;;;;;;;;;;;0.30;99.90;;;;;;5069680;28;19916;-61
2022/12/18 13:17:30;;;;;;;;;;;0.30;99.90;;;;;;5051667;28;20363;-63
2022/12/18 13:20:07;;;;;;;;;;;0.60;99.90;;;;;;5013178;28;20682;-61
2022/12/18 13:22:35;;;;;;;;;;;0.70;99.90;;;;;;5045616;28;19973;-61
2022/12/18 13:25:01;;;;;;;;;;;0.90;99.90;;;;;;5047286;28;19939;-61
2022/12/18 13:27:45;;;;;;;;;;;0.70;99.90;;;;;;5046636;28;19909;-61
2022/12/18 13:30:30;;;;;;;;;;;0.60;99.90;;;;;;5045793;28;20212;-60
2022/12/18 13:33:26;;;;;;;;;;;0.40;99.90;;;;;;5063097;28;19962;-60
2022/12/18 13:35:54;;;;;;;;;;;0.10;99.90;;;;;;5046557;28;19917;-60
2022/12/18 13:38:21;;;;;;;;;;;0.00;99.90;;;;;;5043356;28;19912;-60
2022/12/18 13:40:46;;;;;;;;;;;-0.20;99.90;;;;;;5046328;28;19925;-60
2022/12/18 13:43:21;;;;;;;;;;;-0.20;99.90;;;;;;5046440;28;19978;-59
2022/12/18 13:45:58;;;;;;;;;;;-0.30;99.90;;;;;;5046640;28;19964;-60
2022/12/18 13:48:25;;;;;;;;;;;-0.40;99.90;;;;;;5047421;28;19909;-60
2022/12/18 13:50:58;;;;;;;;;;;-0.40;99.90;;;;;;5063948;28;20251;-60
2022/12/18 13:53:35;;;;;;;;;;;-0.50;99.90;;;;;;5049727;28;20399;-61
2022/12/18 13:56:02;;;;;;;;;;;-0.50;99.90;;;;;;5049880;28;19963;-61
2022/12/18 13:58:27;;;;;;;;;;;-0.50;99.90;;;;;;5051391;28;20004;-60
2022/12/18 14:00:53;;;;;;;;;;;-0.50;99.90;;;;;;5052322;28;20003;-60
2022/12/18 14:03:26;;;;;;;;;;;-0.40;99.90;;;;;;5051819;28;19960;-60
2022/12/18 14:05:54;;;;;;;;;;;-0.40;99.90;;;;;;5053630;28;19936;-60
2022/12/18 14:08:20;;;;;;;;;;;-0.30;99.90;;;;;;5053111;28;19912;-59
2022/12/18 14:10:46;;;;;;;;;;;-0.30;99.90;;;;;;5054679;28;20338;-59
2022/12/18 14:13:18;;;;;;;;;;;-0.20;99.90;;;;;;5053229;28;19920;-60
2022/12/18 14:15:45;;;;;;;;;;;-0.10;99.90;;;;;;5051243;28;19909;-60
2022/12/18 14:18:14;;;;;;;;;;;-0.20;99.90;;;;;;5068431;28;20022;-60
2022/12/18 14:20:41;;;;;;;;;;;0.00;99.90;;;;;;5070664;28;19915;-60
2022/12/18 14:23:24;;;;;;;;;;;-0.10;99.90;;;;;;5052674;28;20408;-60
2022/12/18 14:25:49;;;;;;;;;;;-0.10;99.90;;;;;;5052521;28;19973;-60
2022/12/18 14:28:15;;;;;;;;;;;-0.30;99.90;;;;;;5054007;28;20254;-61
2022/12/18 14:30:42;;;;;;;;;;;-0.40;99.90;;;;;;5053665;28;19981;-62
2022/12/18 14:33:15;;;;;;;;;;;-0.50;99.90;;;;;;5053880;28;19908;-60
2022/12/18 14:35:40;;;;;;;;;;;-0.50;99.90;;;;;;5070092;28;19916;-60